Latest Weather Observations for Walpole North

IDW60801

Issued at 7:02 pm WST Saturday 6 February 2016 (issued every 30 minutes, with the page automatically refreshed every 10 minutes)

About weather observations | Map of weather stations | Latest weather observations for WA | Other Formats
Station Details ID: 009998 Name: NORTH WALPOLE Lat: -34.95 Lon: 116.72 Height: 73.0 m
Data from the previous 72 hours. | See also: Recent months at Walpole North
Date/Time
WST
Temp
°C
App
Temp
°C
Dew
Point
Rel
Hum
%
Delta-T
°C
Wind Press
QNH
hPa
Press
MSL
hPa
Rain
since 9 am
mm
Dir
 
Spd
km/h
Gust
km/h
Spd
kts
Gust
kts
06/07:00pm 17.6 15.4 13.3 76 2.4 SE 17 24 9 13 1020.0 1019.7 0.0
06/06:30pm 17.9 15.3 13.2 74 2.6 SE 19 26 10 14 1019.6 1019.4 0.0
06/06:00pm 17.9 15.0 13.0 73 2.7 SSE 20 30 11 16 1019.4 1019.2 0.0
06/05:30pm 19.1 16.9 13.3 69 3.3 SSE 17 30 9 16 1019.1 1018.9 0.0
06/05:00pm 19.4 16.8 13.8 70 3.2 SSE 20 30 11 16 1018.8 1018.6 0.0
06/04:30pm 20.1 18.8 13.8 67 3.6 SSE 13 24 7 13 1018.8 1018.6 0.0
06/04:00pm 19.7 17.5 13.2 66 3.7 SSE 17 26 9 14 1018.8 1018.6 0.0
06/03:30pm 19.8 17.8 14.0 69 3.4 SSE 17 26 9 14 1018.9 1018.7 0.0
06/03:00pm 19.9 17.9 14.0 69 3.4 SE 17 30 9 16 1019.0 1018.8 0.0
06/02:30pm 19.8 17.4 14.4 71 3.1 SSE 20 30 11 16 1018.9 1018.7 0.0
06/02:00pm 20.1 18.3 14.5 70 3.3 SSE 17 28 9 15 1018.9 1018.7 0.0
06/01:30pm 20.8 19.0 15.4 71 3.2 SSE 19 33 10 18 1018.8 1018.6 0.0
06/01:00pm 21.1 19.3 15.4 70 3.4 SSE 19 32 10 17 1018.9 1018.7 0.0
06/12:30pm 21.1 20.0 15.4 70 3.4 SSE 15 30 8 16 1018.9 1018.7 0.0
06/12:00pm 20.7 20.5 15.7 73 3.0 SSE 11 20 6 11 1019.0 1018.8 0.0
06/11:30am 19.8 18.8 15.7 77 2.4 SE 15 26 8 14 1019.4 1019.2 0.0
06/11:00am 18.9 17.7 15.0 78 2.3 SSE 15 26 8 14 1019.6 1019.4 0.0
06/10:30am 19.2 18.5 15.3 78 2.3 SSE 13 20 7 11 1019.9 1019.6 0.0
06/10:00am 19.0 17.5 15.3 79 2.2 SSE 17 26 9 14 1019.7 1019.5 0.0
06/09:30am 19.2 18.3 15.9 81 2.0 SSE 15 24 8 13 1019.5 1019.3 0.0
06/09:00am 19.2 18.2 15.5 79 2.2 SSE 15 22 8 12 1019.2 1019.0 0.0
06/08:30am 19.0 17.8 16.2 84 1.7 SE 17 26 9 14 1018.9 1018.7 0.0
06/08:00am 18.9 17.9 16.7 87 1.3 SSE 17 28 9 15 1018.8 1018.6 0.0
06/07:30am 18.0 17.6 16.3 90 1.0 SE 13 24 7 13 1018.7 1018.5 0.0
06/07:00am 17.3 17.5 16.8 97 0.3 SSE 11 19 6 10 1018.5 1018.3 0.0
06/06:30am 16.6 17.1 16.6 100 0.0 SE 9 15 5 8 1018.3 1018.1 0.0
06/06:00am 16.1 18.1 16.1 100 0.0 CALM 0 0 0 0 1018.1 1017.9 0.0
06/05:30am 15.4 17.2 15.4 100 0.0 CALM 0 0 0 0 1017.7 1017.5 0.0
06/05:00am 14.7 16.2 14.7 100 0.0 CALM 0 0 0 0 1017.3 1017.1 0.0
06/04:30am 14.6 16.0 14.4 99 0.1 CALM 0 0 0 0 1017.0 1016.8 0.0
06/04:00am 15.5 17.2 15.3 99 0.1 CALM 0 0 0 0 1016.7 1016.5 0.0
06/03:30am 15.6 17.4 15.4 99 0.1 CALM 0 0 0 0 1016.8 1016.6 0.0
06/03:00am 16.1 18.1 15.9 99 0.1 CALM 0 0 0 0 1016.9 1016.7 0.0
06/02:30am 16.1 18.0 15.8 98 0.2 CALM 0 0 0 0 1017.3 1017.1 0.0
06/02:00am 16.5 18.4 15.7 95 0.5 CALM 0 0 0 0 1017.7 1017.5 0.0
06/01:30am 16.9 18.8 16.6 98 0.2 SSE 2 7 1 4 1017.7 1017.5 0.0
06/01:00am 16.6 18.8 16.4 99 0.1 CALM 0 0 0 0 1017.7 1017.5 0.0
06/12:30am 16.6 17.6 16.4 99 0.1 SE 6 9 3 5 1017.7 1017.5 0.0
06/12:00am 16.6 17.4 16.4 99 0.1 SE 7 9 4 5 1017.7 1017.5 0.0
 
Date/Time
WST
Temp
°C
App
Temp
°C
Dew
Point
Rel
Hum
%
Delta-T
°C
Wind Press
QNH
hPa
Press
MSL
hPa
Rain
since 9 am
mm
Dir
 
Spd
km/h
Gust
km/h
Spd
kts
Gust
kts
05/11:30pm 16.9 17.5 16.7 99 0.1 SE 9 11 5 6 1017.6 1017.4 0.0
05/11:00pm 16.7 17.6 16.5 99 0.1 ESE 7 11 4 6 1017.5 1017.3 0.0
05/10:30pm 16.8 17.7 16.5 98 0.2 SE 7 9 4 5 1017.5 1017.3 0.0
05/10:00pm 17.1 17.5 16.3 95 0.5 SE 9 11 5 6 1017.5 1017.3 0.0
05/09:30pm 17.7 18.3 16.7 94 0.6 SE 9 15 5 8 1017.6 1017.4 0.0
05/09:00pm 18.0 18.7 17.0 94 0.6 SE 9 15 5 8 1017.6 1017.4 0.0
05/08:30pm 18.5 19.3 17.3 93 0.7 SE 9 15 5 8 1017.3 1017.1 0.0
05/08:00pm 18.6 19.2 16.9 90 1.0 SSE 9 15 5 8 1016.9 1016.7 0.0
05/07:30pm 19.0 19.5 16.6 86 1.4 SE 9 19 5 10 1016.6 1016.4 0.0
05/07:00pm 19.6 19.8 16.8 84 1.7 SSE 11 17 6 9 1016.3 1016.1 0.0
05/06:30pm 20.5 21.0 16.5 78 2.4 SSE 9 19 5 10 1015.9 1015.7 0.0
05/06:00pm 21.2 21.0 16.8 76 2.7 S 13 22 7 12 1015.7 1015.5 0.0
05/05:30pm 21.7 21.3 16.2 71 3.3 S 13 20 7 11 1015.4 1015.2 0.0
05/05:00pm 22.5 22.1 15.1 63 4.4 SSE 11 20 6 11 1015.2 1015.0 0.0
05/04:30pm 23.5 22.4 14.2 56 5.5 S 13 24 7 13 1015.2 1015.0 0.0
05/04:00pm 24.1 23.2 13.6 52 6.1 S 11 20 6 11 1015.3 1015.1 0.0
05/03:30pm 25.2 23.9 13.7 49 6.8 S 13 24 7 13 1015.2 1015.0 0.0
05/03:00pm 25.5 24.0 13.0 46 7.3 S 13 24 7 13 1015.3 1015.1 0.0
05/02:30pm 26.3 24.0 14.1 47 7.3 S 19 33 10 18 1015.2 1015.0 0.0
05/02:00pm 27.3 26.0 15.7 49 7.1 SW 17 24 9 13 1015.0 1014.8 0.0
05/01:30pm 27.6 26.3 15.9 49 7.2 WSW 17 26 9 14 1015.1 1014.9 0.0
05/01:00pm 27.7 26.3 16.6 50 6.9 WSW 19 28 10 15 1014.9 1014.7 0.0
05/12:30pm 28.6 27.1 15.2 44 8.2 WSW 17 26 9 14 1014.9 1014.7 0.0
05/12:00pm 29.1 27.0 13.7 38 9.2 W 17 28 9 15 1014.9 1014.7 0.0
05/11:30am 28.7 27.3 14.5 42 8.6 W 15 20 8 11 1015.1 1014.9 0.0
05/11:00am 27.3 25.3 15.0 47 7.5 WSW 19 26 10 14 1015.4 1015.2 0.0
05/10:30am 29.8 28.3 13.1 36 9.9 WNW 13 20 7 11 1015.0 1014.8 0.0
05/10:00am 29.0 26.9 14.8 42 8.6 NW 19 24 10 13 1014.9 1014.7 0.0
05/09:30am 27.7 25.2 13.6 42 8.4 NW 19 28 10 15 1014.9 1014.7 0.0
05/09:00am 27.2 25.6 13.9 44 7.9 WNW 15 26 8 14 1015.0 1014.8 0.0
05/08:30am 25.9 24.3 11.6 40 8.2 NNW 11 20 6 11 1014.9 1014.7 0.0
05/08:00am 24.5 25.5 13.1 49 6.6 CALM 0 6 0 3 1015.2 1015.0 0.0
05/07:30am 23.4 24.2 12.7 51 6.2 CALM 0 0 0 0 1015.2 1015.0 0.0
05/07:00am 21.8 21.8 12.4 55 5.3 NE 4 11 2 6 1015.1 1014.9 0.0
05/06:30am 19.9 20.7 12.4 62 4.2 CALM 0 6 0 3 1014.9 1014.7 0.0
05/06:00am 18.6 18.5 12.1 66 3.6 NNE 4 13 2 7 1014.8 1014.6 0.0
05/05:30am 18.4 16.6 12.2 67 3.4 NE 13 20 7 11 1014.5 1014.3 0.0
05/05:00am 17.4 18.1 12.1 71 2.9 CALM 0 7 0 4 1014.4 1014.2 0.0
05/04:30am 18.4 16.7 12.4 68 3.3 NE 13 24 7 13 1014.0 1013.8 0.0
05/04:00am 18.4 16.4 12.6 69 3.2 NE 15 22 8 12 1013.9 1013.7 0.0
05/03:30am 18.6 16.6 12.8 69 3.3 NNE 15 28 8 15 1014.2 1014.0 0.0
05/03:00am 18.8 16.4 12.8 68 3.4 NNE 17 26 9 14 1014.5 1014.3 0.0
05/02:30am 18.8 16.9 13.0 69 3.3 NNE 15 24 8 13 1014.7 1014.5 0.0
05/02:00am 18.4 16.1 13.1 71 3.0 NNE 17 30 9 16 1015.0 1014.8 0.0
05/01:30am 18.9 15.7 13.1 69 3.3 NE 22 35 12 19 1015.2 1015.0 0.0
05/01:00am 18.7 16.5 13.3 71 3.1 NNE 17 33 9 18 1015.6 1015.4 0.0
05/12:30am 18.2 17.2 13.5 74 2.7 NE 11 20 6 11 1016.1 1015.9 0.0
05/12:00am 18.1 17.2 13.6 75 2.6 NE 11 20 6 11 1016.4 1016.2 0.0
 
Date/Time
WST
Temp
°C
App
Temp
°C
Dew
Point
Rel
Hum
%
Delta-T
°C
Wind Press
QNH
hPa
Press
MSL
hPa
Rain
since 9 am
mm
Dir
 
Spd
km/h
Gust
km/h
Spd
kts
Gust
kts
04/11:30pm 18.5 17.2 13.6 73 2.8 NE 13 24 7 13 1016.5 1016.3 0.0
04/11:00pm 18.2 17.2 13.3 73 2.8 ENE 11 17 6 9 1016.9 1016.7 0.0
04/10:30pm 18.6 17.7 13.7 73 2.8 ENE 11 17 6 9 1017.0 1016.8 0.0
04/10:00pm 18.9 17.6 13.7 72 3.0 ENE 13 19 7 10 1017.2 1017.0 0.0
04/09:30pm 19.6 18.0 14.0 70 3.2 ENE 15 20 8 11 1017.3 1017.1 0.0
04/09:00pm 19.6 19.4 13.5 68 3.5 E 7 11 4 6 1017.5 1017.3 0.0
04/08:30pm 20.3 19.5 13.0 63 4.2 E 9 15 5 8 1017.5 1017.3 0.0
04/08:00pm 20.5 19.9 11.7 57 4.9 E 6 11 3 6 1017.5 1017.3 0.0
04/07:30pm 21.1 19.5 10.3 50 5.9 E 9 13 5 7 1017.5 1017.3 0.0
04/07:00pm 22.3 20.0 10.5 47 6.5 E 13 20 7 11 1017.6 1017.4 0.0
04/06:30pm 23.1 21.1 11.5 48 6.5 ESE 13 20 7 11 1017.6 1017.4 0.0
04/06:00pm 23.6 20.6 12.0 48 6.6 ESE 19 26 10 14 1017.4 1017.2 0.0
04/05:30pm 24.8 22.3 13.4 49 6.7 ESE 19 26 10 14 1017.4 1017.2 0.0
04/05:00pm 25.6 23.6 13.8 48 7.0 SE 17 24 9 13 1017.4 1017.2 0.0
04/04:30pm 26.7 24.9 14.5 47 7.3 SE 17 24 9 13 1017.4 1017.2 0.0
04/04:00pm 26.9 23.9 13.6 44 7.9 SE 22 28 12 15 1017.4 1017.2 0.0
04/03:30pm 27.3 25.7 15.0 47 7.5 SE 17 28 9 15 1017.3 1017.1 0.0
04/03:00pm 27.3 26.7 16.6 52 6.6 S 15 28 8 15 1017.4 1017.2 0.0
04/02:30pm 27.3 25.6 16.3 51 6.8 S 20 30 11 16 1017.4 1017.2 0.0
04/02:00pm 28.2 26.3 15.8 47 7.6 SSW 20 30 11 16 1017.5 1017.3 0.0
04/01:30pm 27.7 27.1 17.5 53 6.4 S 17 26 9 14 1017.9 1017.7 0.0
04/01:00pm 26.9 26.7 15.6 50 6.9 S 11 19 6 10 1018.5 1018.3 0.0
04/12:30pm 26.9 27.0 15.6 50 6.9 SE 9 20 5 11 1018.9 1018.7 0.0
04/12:00pm 26.6 25.1 13.0 43 8.0 E 13 22 7 12 1019.2 1019.0 0.0
04/11:30am 26.6 25.8 15.0 49 7.0 ENE 13 19 7 10 1019.7 1019.5 0.0
04/11:00am 25.6 24.4 15.0 52 6.4 ENE 15 20 8 11 1020.3 1020.0 0.0
04/10:30am 24.3 23.8 13.8 52 6.2 NE 9 15 5 8 1020.8 1020.5 0.0
04/10:00am 23.6 22.5 13.2 52 6.0 NE 11 20 6 11 1021.0 1020.7 0.0
04/09:30am 22.6 21.7 13.7 57 5.2 NE 11 17 6 9 1021.3 1021.0 0.0
04/09:00am 20.8 19.1 12.5 59 4.7 NE 13 22 7 12 1021.6 1021.3 0.0
04/08:30am 19.7 18.3 12.2 62 4.2 NE 11 19 6 10 1021.8 1021.5 0.0
04/08:00am 18.7 17.9 12.9 69 3.3 NNE 9 15 5 8 1021.8 1021.5 0.0
04/07:30am 17.3 16.0 12.6 74 2.6 NE 11 26 6 14 1021.8 1021.5 0.0
04/07:00am 15.8 14.9 12.5 81 1.8 NE 9 19 5 10 1021.8 1021.5 0.0
04/06:30am 14.9 13.9 12.4 85 1.4 NE 9 19 5 10 1021.9 1021.6 0.0
04/06:00am 14.0 12.3 12.6 91 0.8 NNE 13 24 7 13 1021.8 1021.5 0.0
04/05:30am 13.4 12.3 12.1 92 0.7 NE 9 20 5 11 1021.8 1021.5 0.0
04/05:00am 13.2 12.2 12.3 94 0.5 NE 9 17 5 9 1021.6 1021.3 0.0
04/04:30am 13.2 11.8 12.3 94 0.5 ENE 11 15 6 8 1021.6 1021.3 0.0
04/04:00am 13.3 11.9 12.2 93 0.6 ENE 11 20 6 11 1021.3 1021.0 0.0
04/03:30am 13.4 12.0 12.1 92 0.7 NE 11 20 6 11 1021.4 1021.1 0.0
04/03:00am 13.4 12.0 12.1 92 0.7 E 11 15 6 8 1021.5 1021.2 0.0
04/02:30am 13.7 11.9 12.1 90 0.9 ENE 13 20 7 11 1021.6 1021.3 0.0
04/02:00am 14.0 11.8 12.2 89 1.0 ENE 15 22 8 12 1021.5 1021.2 0.0
04/01:30am 14.1 12.7 12.1 88 1.1 ENE 11 20 6 11 1021.7 1021.4 0.0
04/01:00am 14.0 12.2 12.0 88 1.1 ENE 13 20 7 11 1021.6 1021.3 0.0
04/12:30am 14.0 12.8 11.7 86 1.2 ENE 9 15 5 8 1022.2 1021.9 0.0
04/12:00am 14.4 12.5 11.7 84 1.4 ENE 13 20 7 11 1022.3 1022.0 0.0
 
Date/Time
WST
Temp
°C
App
Temp
°C
Dew
Point
Rel
Hum
%
Delta-T
°C
Wind Press
QNH
hPa
Press
MSL
hPa
Rain
since 9 am
mm
Dir
 
Spd
km/h
Gust
km/h
Spd
kts
Gust
kts
03/11:30pm 14.7 12.4 11.7 82 1.6 ENE 15 22 8 12 1022.3 1022.0 0.0
03/11:00pm 14.9 13.0 11.7 81 1.7 ENE 13 20 7 11 1022.3 1022.0 0.0
03/10:30pm 15.1 13.1 11.5 79 1.9 ENE 13 20 7 11 1022.6 1022.3 0.0
03/10:00pm 15.5 13.2 11.7 78 2.1 E 15 22 8 12 1022.7 1022.4 0.0
03/09:30pm 15.8 13.5 11.8 77 2.2 ESE 15 26 8 14 1022.9 1022.7 0.0
03/09:00pm 16.2 14.0 12.0 76 2.3 E 15 24 8 13 1022.7 1022.4 0.0
03/08:30pm 16.1 13.9 12.1 77 2.2 ESE 15 20 8 11 1022.5 1022.2 0.0
03/08:00pm 16.4 13.5 12.2 76 2.3 ESE 19 28 10 15 1022.5 1022.2 0.0
03/07:30pm 16.8 13.9 12.3 75 2.5 ESE 19 28 10 15 1022.2 1021.9 0.0

Other Formats:

Comma delimited format used in spreadsheet applications
http://www.bom.gov.au/fwo/IDW60801/IDW60801.95647.axf

JavaScript Object Notation format (JSON) in row-major order
http://www.bom.gov.au/fwo/IDW60801/IDW60801.95647.json